Airfield :
LOGIN :

Register | Disclaimer

   EN    FR    IT 

 










Legend :    VFR   Marginal VFR   IFR   Intensive IFR   Very Intensive IFR
Visi :
Ceiling :
>= 8 km
>= 3000ft
5 to 8 km
1000 to 3000 ft
1500m to 5 km
500 to 1000 ft
800 to 1500m
200 to 500 ft
< 800m
< 200 ft
Symbols :   Thunderstorms  Fog  Heavy snow  Heavy precipitations  Wind > 20 kt
SIGMETs :     Misc.  Thunderstorms  Icing  Turbulence  Mountain Waves  Volcanic Ashes






- Airport Elevation : 325 ft
- IATA code : POX


LFPT - Pontoise

CURRENT METAR :
  • 191530Z AUTO 25005KT 9999 -RA BKN027 BKN036 OVC042 08/05 Q1025

EXPIRED METARs :
  • 191500Z AUTO 25005KT 9999 -RA FEW026 BKN035 BKN041 08/04 Q1025
  • 191430Z AUTO 25007KT 9999 -RA BKN033 BKN039 BKN047 08/04 Q1025
  • 191400Z AUTO 27010KT 230V290 9999 -RA BKN034 BKN044 09/03 Q1025
  • 191330Z AUTO 26009KT 9999 -RA BKN035 BKN048 09/03 Q1025
  • 191300Z AUTO 27010KT 240V300 9999 FEW035 BKN047 BKN054 09/02 Q1025

TAF N/A
ATIS : +33 1 30 30 52 08



MET'MAP, your aeronautical weather chart ! - Copyright ORBIFLY December 2007 - Disclaimer

ORBIFLY MET'MAP TEAM :

Programming & Development : Alexandra Zaïnal
Concept & original design : Baudouin d'Aumeries
Assistance for programming : Marc-Olivier Méhu
Technical & hardware support : Manuel Goepfert

Contact : metmap@orbifly.com




SOURCES & CREDITS :

   NOAA